VTBS/BKK METAR and TAF weather

Enter ICAO airport designator
Station Type Date Time Source
VTBS METAR 2023/02/05 23:00 UTC NOAA

VTBS 052300Z 19004KT 150V230 9999 FEW020 26/23 Q1010 NOSIG


Station Type Date Time Source
VTBS Decoded METAR 2023/02/05 23:00 UTC NOAA

Chon Buri, Thailand (VTBS) 13-22N 100-59E 2M
Feb 05, 2023 - 06:00 PM EST / 2023.02.05 2300 UTC
Wind: from the S (190 degrees) at 5 MPH (4 KT) (direction variable):0
Visibility: greater than 7 mile(s):0
Sky conditions: mostly clear
Temperature: 78 F (26 C)
Dew Point: 73 F (23 C)
Relative Humidity: 83%
Pressure (altimeter): 29.83 in. Hg (1010 hPa)
ob: VTBS 052300Z 19004KT 150V230 9999 FEW020 26/23 Q1010 NOSIG
cycle: 23

Station Type Date Time Source
VTBS TAF 2023/02/04 12:00 UTC NOAA

TAF VTBS 041100Z 0412/0518 21008KT 9000 FEW020
TEMPO 0412/0416 12010G25KT 4000 TSRA FEW018CB SCT030
BECMG 0416/0418 13005KT

Example: see airport list